Time;durP1;ratioP1;P1;durP2;ratioP2;P2;SDS_P1;SDS_P2;PMS_P1;PMS_P2;Temp;Humidity;BMP_temperature;BMP_pressure;BME280_temperature;BME280_humidity;BME280_pressure;Samples;Min_cycle;Max_cycle;Signal;HPM_P1;HPM_P2
2021/04/02 00:01:32;;;;;;;;;;;1.50;99.90;;;;;;5095385;28;19915;-53
2021/04/02 00:03:58;;;;;;;;;;;1.50;99.90;;;;;;5088443;28;20361;-52
2021/04/02 00:06:24;;;;;;;;;;;1.60;99.90;;;;;;5081040;28;19966;-49
2021/04/02 00:08:49;;;;;;;;;;;1.50;99.90;;;;;;5074734;28;20356;-51
2021/04/02 00:11:15;;;;;;;;;;;1.50;99.90;;;;;;5074916;28;19913;-50
2021/04/02 00:13:44;;;;;;;;;;;1.40;99.90;;;;;;5075589;28;19935;-52
2021/04/02 00:16:10;;;;;;;;;;;1.30;99.90;;;;;;5074858;28;19909;-52
2021/04/02 00:18:36;;;;;;;;;;;1.30;99.90;;;;;;5080472;28;19979;-51
2021/04/02 00:21:03;;;;;;;;;;;1.30;99.90;;;;;;5089814;28;20032;-50
2021/04/02 00:23:29;;;;;;;;;;;1.40;99.90;;;;;;5075152;28;19909;-50
2021/04/02 00:25:55;;;;;;;;;;;1.40;99.90;;;;;;5074450;28;20433;-50
2021/04/02 00:28:21;;;;;;;;;;;1.40;99.90;;;;;;5075104;28;19959;-51
2021/04/02 00:30:48;;;;;;;;;;;1.30;99.90;;;;;;5077205;28;19953;-49
2021/04/02 00:33:14;;;;;;;;;;;1.30;99.90;;;;;;5091114;28;19908;-50
2021/04/02 00:35:40;;;;;;;;;;;1.20;99.90;;;;;;5084105;28;19915;-50
2021/04/02 00:38:06;;;;;;;;;;;1.10;99.90;;;;;;5074314;28;19908;-50
2021/04/02 00:40:39;;;;;;;;;;;1.10;99.90;;;;;;5074319;28;20379;-52
2021/04/02 00:43:05;;;;;;;;;;;1.30;99.90;;;;;;5085235;28;19913;-50
2021/04/02 00:45:31;;;;;;;;;;;1.40;99.90;;;;;;5074182;28;19962;-51
2021/04/02 00:47:57;;;;;;;;;;;1.50;99.90;;;;;;5093147;28;19962;-51
2021/04/02 00:50:25;;;;;;;;;;;1.50;99.90;;;;;;5092061;28;19931;-53
2021/04/02 00:52:51;;;;;;;;;;;1.40;99.90;;;;;;5084772;28;19908;-50
2021/04/02 00:55:17;;;;;;;;;;;1.30;99.90;;;;;;5073608;28;19999;-51
2021/04/02 00:57:43;;;;;;;;;;;1.30;99.90;;;;;;5080613;28;19912;-51
2021/04/02 01:00:09;;;;;;;;;;;1.30;99.90;;;;;;5076551;28;19909;-52
2021/04/02 01:02:35;;;;;;;;;;;1.40;99.90;;;;;;5093554;28;19919;-50
2021/04/02 01:05:06;;;;;;;;;;;1.50;99.90;;;;;;5076812;28;19908;-51
2021/04/02 01:07:32;;;;;;;;;;;1.70;99.90;;;;;;5075998;28;24068;-50
2021/04/02 01:09:58;;;;;;;270.60;76.80;;;1.80;99.90;;;;;;5086576;28;20413;-52
2021/04/02 01:12:24;;;;;;;;;;;1.90;99.90;;;;;;5080057;28;20430;-50
2021/04/02 01:14:50;;;;;;;;;;;2.00;99.90;;;;;;5073657;28;19943;-53
2021/04/02 01:17:16;;;;;;;;;;;2.00;99.90;;;;;;5080679;28;19908;-53
2021/04/02 01:19:43;;;;;;;;;;;2.10;99.90;;;;;;5082294;28;20360;-51
2021/04/02 01:22:12;;;;;;;;;;;2.10;99.90;;;;;;5071943;28;19916;-51
2021/04/02 01:24:47;;;;;;;;;;;2.20;99.90;;;;;;5073020;28;19919;-50
2021/04/02 01:27:45;;;;;;;;;;;2.30;99.90;;;;;;5082842;28;19908;-51
2021/04/02 01:30:11;;;;;;;;;;;2.30;99.90;;;;;;5070516;28;19920;-50
2021/04/02 01:32:40;;;;;;;;;;;2.40;99.90;;;;;;5079911;28;20360;-50
2021/04/02 01:35:16;;;;;;;;;;;2.40;99.90;;;;;;5074047;28;19931;-51
2021/04/02 01:37:48;;;;;;;;;;;2.50;99.90;;;;;;5073035;28;19935;-52
2021/04/02 01:40:14;;;;;;;;;;;2.50;99.90;;;;;;5088966;28;19915;-51
2021/04/02 01:42:41;;;;;;;;;;;2.60;99.90;;;;;;5087245;28;19919;-50
2021/04/02 01:45:07;;;;;;;;;;;2.60;99.90;;;;;;5073892;28;19908;-51
2021/04/02 01:47:33;;;;;;;;;;;2.60;99.90;;;;;;5081217;28;20414;-50
2021/04/02 01:49:59;;;;;;;;;;;2.60;99.90;;;;;;5077532;28;19908;-50
2021/04/02 01:52:25;;;;;;;;;;;2.60;99.90;;;;;;5074289;28;19912;-51
2021/04/02 01:54:51;;;;;;;;;;;2.60;99.90;;;;;;5080377;28;19916;-53
2021/04/02 01:57:17;;;;;;;;;;;2.70;99.90;;;;;;5071306;28;19915;-50
2021/04/02 01:59:43;;;;;;;;;;;2.70;99.90;;;;;;5089608;28;19918;-53
2021/04/02 02:02:09;;;;;;;;;;;2.70;99.90;;;;;;5091044;28;19908;-53
2021/04/02 02:04:35;;;;;;;;;;;2.80;99.90;;;;;;5090133;28;20011;-50
2021/04/02 02:07:01;;;;;;;;;;;2.80;99.90;;;;;;5072480;28;19913;-54
2021/04/02 02:09:28;;;;;;;;;;;2.90;99.90;;;;;;5088717;28;20348;-51
2021/04/02 02:11:55;;;;;;;;;;;2.90;99.90;;;;;;5081023;28;19915;-53
2021/04/02 02:14:21;;;;;;;;;;;3.00;99.90;;;;;;5075568;28;19935;-52
2021/04/02 02:16:48;;;;;;;;;;;3.00;99.90;;;;;;5089599;28;19911;-51
2021/04/02 02:19:15;;;;;;;;;;;3.10;99.90;;;;;;5081786;28;20387;-50
2021/04/02 02:21:45;;;;;;;;;;;3.10;99.90;;;;;;5091137;28;19908;-50
2021/04/02 02:24:11;;;;;;;;;;;3.20;99.90;;;;;;5090342;28;19923;-50
2021/04/02 02:26:38;;;;;;;;;;;3.20;99.90;;;;;;5085397;28;19912;-50
2021/04/02 02:29:04;;;;;;;;;;;3.30;99.90;;;;;;5054963;28;19913;-51
2021/04/02 02:31:30;;;;;;;;;;;3.30;99.90;;;;;;5090828;28;19940;-50
2021/04/02 02:33:55;;;;;;;;;;;3.30;99.90;;;;;;5090769;28;19951;-51
2021/04/02 02:36:21;;;;;;;;;;;3.40;99.90;;;;;;5092206;28;20417;-50
2021/04/02 02:38:47;;;;;;;;;;;3.40;99.90;;;;;;5090139;28;19987;-54
2021/04/02 02:41:14;;;;;;;;;;;3.40;99.90;;;;;;5076147;28;20254;-51
2021/04/02 02:43:40;;;;;;;;;;;3.40;99.90;;;;;;5079305;28;26192;-53
2021/04/02 02:46:06;;;;;;;;;;;3.40;99.90;;;;;;5075740;28;19905;-50
2021/04/02 02:48:31;;;;;;;;;;;3.50;99.90;;;;;;5083607;28;19908;-50
2021/04/02 02:50:57;;;;;;;;;;;3.50;99.90;;;;;;5076093;28;19913;-50
2021/04/02 02:53:24;;;;;;;;;;;3.50;99.90;;;;;;5088409;28;24071;-52
2021/04/02 02:55:50;;;;;;;;;;;3.50;99.90;;;;;;5094547;28;19912;-50
2021/04/02 02:58:16;;;;;;;;;;;3.60;99.90;;;;;;5092987;28;19912;-51
2021/04/02 03:00:44;;;;;;;;;;;3.60;99.90;;;;;;5092494;28;19908;-53
2021/04/02 03:03:13;;;;;;;;;;;3.60;99.90;;;;;;5093315;28;24071;-50
2021/04/02 03:05:39;;;;;;;;;;;3.70;99.90;;;;;;5075438;28;24076;-51
2021/04/02 03:08:05;;;;;;;;;;;3.70;99.90;;;;;;5089920;28;19987;-50
2021/04/02 03:10:31;;;;;;;;;;;3.70;99.90;;;;;;5086820;27;25086;-50
2021/04/02 03:12:58;;;;;;;;;;;3.80;99.90;;;;;;5088433;28;20372;-50
2021/04/02 03:15:23;;;;;;;;;;;3.80;99.90;;;;;;5079644;28;25087;-52
2021/04/02 03:17:51;;;;;;;;;;;3.80;99.90;;;;;;5078126;28;20263;-51
2021/04/02 03:20:17;;;;;;;;;;;3.80;99.90;;;;;;5087270;28;25079;-50
2021/04/02 03:22:43;;;;;;;;;;;3.80;99.90;;;;;;5073636;28;20401;-51
2021/04/02 03:25:10;;;;;;;;;;;3.90;99.90;;;;;;5074279;28;25096;-51
2021/04/02 03:27:39;;;;;;;;;;;3.90;99.90;;;;;;5073539;28;20391;-51
2021/04/02 03:30:06;;;;;;;;;;;4.00;99.90;;;;;;5080626;28;20278;-51
2021/04/02 03:32:32;;;;;;;;;;;4.00;99.90;;;;;;5073753;28;20800;-51
2021/04/02 03:34:58;;;;;;;35.20;27.07;;;4.00;99.90;;;;;;5074227;28;21199;-51
2021/04/02 03:37:24;;;;;;;;;;;4.00;99.90;;;;;;5089037;28;20392;-52
2021/04/02 03:39:50;;;;;;;;;;;4.10;99.90;;;;;;5089931;28;25094;-51
2021/04/02 03:42:16;;;;;;;;;;;4.10;99.90;;;;;;5089947;28;20396;-51
2021/04/02 03:44:42;;;;;;;;;;;4.10;99.90;;;;;;5091807;28;20440;-50
2021/04/02 03:47:10;;;;;;;;;;;4.10;99.90;;;;;;5071938;28;20886;-53
2021/04/02 03:49:36;;;;;;;;;;;4.10;99.90;;;;;;5090879;28;20379;-50
2021/04/02 03:52:06;;;;;;;854.70;207.90;;;4.20;99.90;;;;;;5082586;28;20770;-52
2021/04/02 03:54:32;;;;;;;;;;;4.20;99.90;;;;;;5071529;28;25091;-50
2021/04/02 03:56:58;;;;;;;;;;;4.20;99.90;;;;;;5073143;28;20419;-53
2021/04/02 03:59:24;;;;;;;711.30;164.90;;;4.20;99.90;;;;;;5068577;28;20515;-52
2021/04/02 04:01:51;;;;;;;250.75;45.20;;;4.20;99.90;;;;;;5072555;28;20387;-54
2021/04/02 04:04:17;;;;;;;;;;;4.20;99.90;;;;;;5071037;28;25179;-50
2021/04/02 04:06:44;;;;;;;;;;;4.20;99.90;;;;;;5091347;28;19916;-52
2021/04/02 04:09:11;;;;;;;;;;;4.20;99.90;;;;;;5086173;28;20351;-50
2021/04/02 04:11:37;;;;;;;;;;;4.20;99.90;;;;;;5073448;28;19915;-52
2021/04/02 04:14:03;;;;;;;;;;;4.20;99.90;;;;;;5070417;28;19917;-52
2021/04/02 04:16:29;;;;;;;;;;;4.20;99.90;;;;;;5092939;28;19912;-53
2021/04/02 04:18:59;;;;;;;;;;;4.10;99.90;;;;;;5077058;28;24065;-51
2021/04/02 04:21:26;;;;;;;;;;;4.10;99.90;;;;;;5072311;28;25080;-50
2021/04/02 04:23:52;;;;;;;;;;;4.10;99.90;;;;;;5087540;28;25056;-54
2021/04/02 04:26:18;;;;;;;;;;;4.00;99.90;;;;;;5088700;28;25128;-54
2021/04/02 04:28:45;;;;;;;;;;;3.90;99.90;;;;;;5035772;28;1395523;-51
2021/04/02 04:31:11;;;;;;;;;;;3.80;99.90;;;;;;5082598;28;25081;-52
2021/04/02 04:33:37;;;;;;;;;;;3.80;99.90;;;;;;5084437;28;25066;-51
2021/04/02 04:36:03;;;;;;;;;;;3.80;99.90;;;;;;5092836;28;25069;-54
2021/04/02 04:38:29;;;;;;;;;;;3.70;99.90;;;;;;5080445;28;25067;-51
2021/04/02 04:40:56;;;;;;;;;;;3.70;99.90;;;;;;5072324;28;25114;-54
2021/04/02 04:43:22;;;;;;;;;;;3.70;99.90;;;;;;5073888;28;25062;-51
2021/04/02 04:45:48;;;;;;;;;;;3.70;99.90;;;;;;5072131;28;25081;-51
2021/04/02 04:48:14;;;;;;;;;;;3.70;99.90;;;;;;5074095;28;25080;-51
2021/04/02 04:50:40;;;;;;;;;;;3.70;99.90;;;;;;5091604;28;25085;-53
2021/04/02 04:53:07;;;;;;;;;;;3.70;99.90;;;;;;5091328;28;25097;-52
2021/04/02 04:55:33;;;;;;;;;;;3.70;99.90;;;;;;5083520;28;25059;-51
2021/04/02 04:57:59;;;;;;;;;;;3.60;99.90;;;;;;5089917;28;25149;-50
2021/04/02 05:00:25;;;;;;;;;;;3.60;99.90;;;;;;5092410;28;25087;-53
2021/04/02 05:02:51;;;;;;;;;;;3.60;99.90;;;;;;5090471;28;19912;-52
2021/04/02 05:05:19;;;;;;;;;;;3.70;99.90;;;;;;5072079;28;19915;-51
2021/04/02 05:07:45;;;;;;;;;;;3.70;99.90;;;;;;5086354;28;25076;-54
2021/04/02 05:10:11;;;;;;;;;;;3.80;99.90;;;;;;5090527;28;26199;-52
2021/04/02 05:12:38;;;;;;;;;;;3.90;99.90;;;;;;5092435;28;25069;-52
2021/04/02 05:15:04;;;;;;;;;;;3.90;99.90;;;;;;5074509;28;25065;-53
2021/04/02 05:17:30;;;;;;;;;;;4.00;99.90;;;;;;5058657;28;25066;-52
2021/04/02 05:19:56;;;;;;;;;;;4.00;99.90;;;;;;5091256;28;25130;-54
2021/04/02 05:22:22;;;;;;;;;;;4.10;99.90;;;;;;5091562;28;25122;-53
2021/04/02 05:24:48;;;;;;;;;;;4.10;99.90;;;;;;5073069;28;25070;-51
2021/04/02 05:27:14;;;;;;;;;;;4.10;99.90;;;;;;5073532;28;19920;-52
2021/04/02 05:29:40;;;;;;;;;;;4.10;99.90;;;;;;5078749;28;19931;-51
2021/04/02 05:32:06;;;;;;;;;;;4.20;99.90;;;;;;5091116;28;19923;-52
2021/04/02 05:34:32;;;;;;;;;;;4.20;99.90;;;;;;5085527;28;19931;-51
2021/04/02 05:36:58;;;;;;;;;;;4.10;99.90;;;;;;5072784;28;19916;-50
2021/04/02 05:39:24;;;;;;;;;;;4.10;99.90;;;;;;5072484;28;19919;-52
2021/04/02 05:42:01;;;;;;;;;;;4.10;99.90;;;;;;5080104;28;19916;-52
2021/04/02 05:44:29;;;;;;;;;;;4.20;99.90;;;;;;5076377;28;20387;-53
2021/04/02 05:46:55;;;;;;;;;;;4.20;99.90;;;;;;5083531;28;19909;-53
2021/04/02 05:49:21;;;;;;;;;;;4.30;99.90;;;;;;5071885;28;19961;-51
2021/04/02 05:51:50;;;;;;;;;;;4.50;99.90;;;;;;5092518;28;19966;-50
2021/04/02 05:54:17;;;;;;;;;;;4.60;99.90;;;;;;5083896;28;19939;-54
2021/04/02 05:56:43;;;;;;;;;;;4.80;99.90;;;;;;5091963;28;20276;-54
2021/04/02 05:59:09;;;;;;;;;;;5.00;99.90;;;;;;5077539;28;19931;-52
2021/04/02 06:01:35;;;;;;;;;;;5.10;99.90;;;;;;5072671;28;19912;-51
2021/04/02 06:04:01;;;;;;;;;;;4.90;99.90;;;;;;5072836;28;19920;-50
2021/04/02 06:06:27;;;;;;;;;;;4.90;99.90;;;;;;5080741;28;19959;-53
2021/04/02 06:08:53;;;;;;;;;;;4.90;99.90;;;;;;5082087;28;20378;-53
2021/04/02 06:11:19;;;;;;;;;;;5.00;99.90;;;;;;5091221;28;19951;-51
2021/04/02 06:13:45;;;;;;;;;;;5.10;99.90;;;;;;5092704;28;20018;-51
2021/04/02 06:16:11;;;;;;;;;;;5.20;99.90;;;;;;5087907;28;20364;-55
2021/04/02 06:18:37;;;;;;;;;;;5.20;99.90;;;;;;5072322;28;19917;-54
2021/04/02 06:21:03;;;;;;;;;;;5.30;99.90;;;;;;5072290;28;19912;-52
2021/04/02 06:23:31;;;;;;;;;;;5.30;99.90;;;;;;5089616;28;19908;-54
2021/04/02 06:25:57;;;;;;;;;;;5.30;99.90;;;;;;5080705;28;19915;-51
2021/04/02 06:28:27;;;;;;;;;;;5.40;99.90;;;;;;5082634;28;19912;-53
2021/04/02 06:30:59;;;;;;;;;;;5.30;99.90;;;;;;5078033;28;19924;-52
2021/04/02 06:33:35;;;;;;;;;;;5.30;99.90;;;;;;5081182;28;19908;-50
2021/04/02 06:36:15;;;;;;;;;;;5.40;99.90;;;;;;5094649;28;19916;-52
2021/04/02 06:38:42;;;;;;;;;;;5.50;99.90;;;;;;5077144;28;19909;-54
2021/04/02 06:41:08;;;;;;;;;;;5.60;99.90;;;;;;5078370;28;19915;-54
2021/04/02 06:43:41;;;;;;;;;;;5.80;99.90;;;;;;5082531;28;19932;-51
2021/04/02 06:46:07;;;;;;;;;;;5.90;99.90;;;;;;5075919;28;19912;-55
2021/04/02 06:48:33;;;;;;;;;;;5.90;99.90;;;;;;5085202;28;19912;-50
2021/04/02 06:50:59;;;;;;;;;;;5.80;99.90;;;;;;5092974;28;19904;-50
2021/04/02 06:53:25;;;;;;;;;;;5.80;99.90;;;;;;5085655;28;19912;-51
2021/04/02 06:55:51;;;;;;;;;;;5.90;99.90;;;;;;5073235;28;19917;-50
2021/04/02 06:58:17;;;;;;;;;;;5.90;99.90;;;;;;5071975;28;19912;-51
2021/04/02 07:00:43;;;;;;;;;;;5.90;99.90;;;;;;5071218;28;19991;-51
2021/04/02 07:03:09;;;;;;;;;;;6.00;99.90;;;;;;5078347;28;19950;-54
2021/04/02 07:05:35;;;;;;;;;;;6.00;99.90;;;;;;5090962;28;19904;-52
2021/04/02 07:08:05;;;;;;;;;;;6.00;99.90;;;;;;5091935;28;19912;-51
2021/04/02 07:10:32;;;;;;;;;;;6.00;99.90;;;;;;5077527;28;19914;-52
2021/04/02 07:12:58;;;;;;;;;;;6.00;99.90;;;;;;5079230;28;19916;-50
2021/04/02 07:15:24;;;;;;;;;;;6.30;99.90;;;;;;5071691;28;19912;-52
2021/04/02 07:17:50;;;;;;;;;;;6.40;99.90;;;;;;5070983;28;19962;-51
2021/04/02 07:20:16;;;;;;;;;;;6.50;99.90;;;;;;5070300;28;24124;-53
2021/04/02 07:22:42;;;;;;;;;;;6.40;99.90;;;;;;5073012;28;19908;-50
2021/04/02 07:25:09;;;;;;;;;;;6.40;99.90;;;;;;5075444;28;19908;-53
2021/04/02 07:27:35;;;;;;;;;;;6.60;99.90;;;;;;5074964;28;20292;-51
2021/04/02 07:30:04;;;;;;;;;;;6.70;99.90;;;;;;5075344;28;19920;-52
2021/04/02 07:32:31;;;;;;;;;;;6.80;99.90;;;;;;5074990;28;19908;-51
2021/04/02 07:34:57;;;;;;;;;;;6.70;99.90;;;;;;5074085;28;20353;-50
2021/04/02 07:37:22;;;;;;;;;;;6.90;99.90;;;;;;5080535;28;19928;-50
2021/04/02 07:39:49;;;;;;;;;;;7.00;99.90;;;;;;5094236;28;24073;-52
2021/04/02 07:42:16;;;;;;;;;;;7.00;99.90;;;;;;5093416;28;19904;-52
2021/04/02 07:44:48;;;;;;;;;;;6.70;99.90;;;;;;5088550;28;24086;-54
2021/04/02 07:47:14;;;;;;;;;;;6.90;99.90;;;;;;5077486;28;20383;-50
2021/04/02 07:49:46;;;;;;;;;;;6.90;99.90;;;;;;5076875;28;19995;-51
2021/04/02 07:52:12;;;;;;;;;;;7.20;99.90;;;;;;5092220;28;19915;-50
2021/04/02 07:54:41;;;;;;;;;;;7.20;99.90;;;;;;5074943;28;25064;-53
2021/04/02 07:57:10;;;;;;;;;;;7.30;99.90;;;;;;5083051;28;19909;-53
2021/04/02 07:59:39;;;;;;;;;;;7.60;99.90;;;;;;5095677;28;19908;-51
2021/04/02 08:02:05;;;;;;;;;;;7.60;99.90;;;;;;5081918;28;19920;-52
2021/04/02 08:04:41;;;;;;;;;;;7.70;99.90;;;;;;5077129;28;24064;-52
2021/04/02 08:07:14;;;;;;;;;;;8.10;99.90;;;;;;5074926;28;25061;-53
2021/04/02 08:09:41;;;;;;;;;;;8.50;99.90;;;;;;5094595;28;19908;-52
2021/04/02 08:12:07;;;;;;;;;;;8.60;99.90;;;;;;5089766;28;24057;-53
2021/04/02 08:14:34;;;;;;;;;;;8.60;99.90;;;;;;5072973;28;19916;-52
2021/04/02 08:17:00;;;;;;;;;;;8.60;99.90;;;;;;5074461;28;19919;-52
2021/04/02 08:19:29;;;;;;;;;;;8.60;99.90;;;;;;5073917;28;25115;-55
2021/04/02 08:21:58;;;;;;;;;;;9.30;99.90;;;;;;5074533;28;20368;-54
2021/04/02 08:24:26;;;;;;;;;;;10.00;99.90;;;;;;5074397;28;20372;-55
2021/04/02 08:26:52;;;;;;;;;;;10.50;99.90;;;;;;5075396;28;20353;-55
2021/04/02 08:29:19;;;;;;;;;;;11.60;99.90;;;;;;5073986;28;19928;-55
2021/04/02 08:31:46;;;;;;;;;;;11.60;99.90;;;;;;5074683;28;19908;-53
2021/04/02 08:34:21;;;;;;;;;;;11.80;99.90;;;;;;5075704;28;20295;-56
2021/04/02 08:36:48;;;;;;;;;;;12.30;99.90;;;;;;5084562;28;20010;-54
2021/04/02 08:39:16;;;;;;;;;;;12.40;99.90;;;;;;5079289;28;19911;-55
2021/04/02 08:41:42;;;;;;;;;;;12.90;99.90;;;;;;5083740;28;19920;-56
2021/04/02 08:44:07;;;;;;;;;;;13.30;99.90;;;;;;5082341;28;20399;-56
2021/04/02 08:46:40;;;;;;;;;;;12.80;99.90;;;;;;5084848;28;19912;-56
2021/04/02 08:49:06;;;;;;;;;;;14.20;99.90;;;;;;5084942;28;19911;-56
2021/04/02 08:51:32;;;;;;;;;;;13.70;98.80;;;;;;5081779;28;19904;-56
2021/04/02 08:53:58;;;;;;;;;;;13.40;99.90;;;;;;5083311;28;19927;-55
2021/04/02 08:56:26;;;;;;;;;;;13.90;99.90;;;;;;5084992;28;20318;-56
2021/04/02 08:58:52;;;;;;;;;;;14.80;99.30;;;;;;5077460;28;19967;-58
2021/04/02 09:01:18;;;;;;;;;;;15.30;98.50;;;;;;5079087;28;20367;-56
2021/04/02 09:03:44;;;;;;;;;;;15.70;96.00;;;;;;5080651;28;19908;-56
2021/04/02 09:06:10;;;;;;;;;;;15.80;95.60;;;;;;5074746;28;19912;-56
2021/04/02 09:08:36;;;;;;;;;;;14.60;95.80;;;;;;5073533;28;25091;-56
2021/04/02 09:11:20;;;;;;;;;;;15.50;95.00;;;;;;5078698;28;19916;-56
2021/04/02 09:13:47;;;;;;;;;;;14.90;94.10;;;;;;5078215;28;19917;-55
2021/04/02 09:16:14;;;;;;;;;;;15.20;94.10;;;;;;5077329;28;20280;-55
2021/04/02 09:18:46;;;;;;;;;;;14.20;93.90;;;;;;5073475;28;19913;-55
2021/04/02 09:21:12;;;;;;;;;;;14.00;94.90;;;;;;5083929;28;20296;-54
2021/04/02 09:23:38;;;;;;;;;;;13.20;93.70;;;;;;5079796;28;19931;-55
2021/04/02 09:26:06;;;;;;;;;;;12.40;94.20;;;;;;5076311;28;20889;-54
2021/04/02 09:28:32;;;;;;;;;;;12.30;95.90;;;;;;5093034;28;20039;-54
2021/04/02 09:31:17;;;;;;;;;;;12.30;96.30;;;;;;5081098;28;25150;-54
2021/04/02 09:33:44;;;;;;;557.20;279.83;;;12.00;95.80;;;;;;5092159;28;19912;-54
2021/04/02 09:36:10;;;;;;;;;;;12.00;93.60;;;;;;5092931;28;20560;-55
2021/04/02 09:38:36;;;;;;;;;;;12.50;94.70;;;;;;5084350;28;28115;-50
2021/04/02 09:41:02;;;;;;;;;;;12.30;94.80;;;;;;5087675;28;25074;-48
2021/04/02 09:43:48;;;;;;;;;;;11.30;94.80;;;;;;5075371;28;25164;-46
2021/04/02 09:46:34;;;;;;;;;;;11.20;95.40;;;;;;5081492;28;25127;-48
2021/04/02 09:49:07;;;;;;;;;;;11.40;95.50;;;;;;5073992;28;25096;-49
2021/04/02 09:51:34;;;;;;;;;;;11.40;95.10;;;;;;5072555;28;24070;-50
2021/04/02 09:54:00;;;;;;;;;;;11.60;95.90;;;;;;5080889;28;20225;-49
2021/04/02 09:56:26;;;;;;;;;;;12.00;95.60;;;;;;5079070;28;19920;-49
2021/04/02 09:58:52;;;;;;;;;;;12.30;92.90;;;;;;5077676;28;25155;-48
2021/04/02 10:01:18;;;;;;;;;;;12.50;94.00;;;;;;5083309;28;24065;-50
2021/04/02 10:03:44;;;;;;;;;;;12.50;92.00;;;;;;5074780;28;19908;-49
2021/04/02 10:06:10;;;;;;;;;;;12.40;91.20;;;;;;5078752;28;20250;-51
2021/04/02 10:08:36;;;;;;;;;;;12.40;92.40;;;;;;5075896;28;25074;-48
2021/04/02 10:11:02;;;;;;;;;;;12.20;93.30;;;;;;5075006;28;25103;-50
2021/04/02 10:13:27;;;;;;;;;;;12.40;93.70;;;;;;5086177;28;24181;-47
2021/04/02 10:15:53;;;;;;;;;;;12.00;93.90;;;;;;5088777;28;20477;-48
2021/04/02 10:18:20;;;;;;;;;;;11.80;93.10;;;;;;5088024;28;25106;-48
2021/04/02 10:20:46;;;;;;;;;;;11.20;93.20;;;;;;5078529;28;25077;-48
2021/04/02 10:23:12;;;;;;;;;;;11.40;94.70;;;;;;5086922;28;25163;-50
2021/04/02 10:25:38;;;;;;;;;;;11.60;94.90;;;;;;5075885;28;20262;-51
2021/04/02 10:28:04;;;;;;;;;;;11.70;95.30;;;;;;5079710;28;25083;-48
2021/04/02 10:30:30;;;;;;;;;;;11.50;94.10;;;;;;5074741;28;25153;-51
2021/04/02 10:32:56;;;;;;;;;;;11.50;94.10;;;;;;5068839;28;25084;-49
2021/04/02 10:35:22;;;;;;;;;;;11.60;94.30;;;;;;5075074;28;20485;-49
2021/04/02 10:37:48;;;;;;;;;;;11.50;94.90;;;;;;5071935;28;25195;-49
2021/04/02 10:40:14;;;;;;;;;;;11.80;94.40;;;;;;5064887;28;20420;-49
2021/04/02 10:42:40;;;;;;;;;;;11.50;93.50;;;;;;5071876;28;25110;-50
2021/04/02 10:45:06;;;;;;;;;;;11.10;94.90;;;;;;5076487;28;25144;-50
2021/04/02 10:47:32;;;;;;;;;;;10.60;95.50;;;;;;5073708;28;25072;-49
2021/04/02 10:49:58;;;;;;;;;;;10.70;96.20;;;;;;5073038;28;25139;-47
2021/04/02 10:52:24;;;;;;;;;;;11.10;96.70;;;;;;5075370;28;20748;-48
2021/04/02 10:54:50;;;;;;;;;;;11.50;96.70;;;;;;5067052;28;20871;-52
2021/04/02 10:57:16;;;;;;;760.70;228.30;;;11.30;95.10;;;;;;5072320;28;20414;-48
2021/04/02 10:59:42;;;;;;;761.75;232.20;;;12.20;96.50;;;;;;5077093;28;20769;-49
2021/04/02 11:02:09;;;;;;;;;;;12.10;96.20;;;;;;5079918;28;20396;-48
2021/04/02 11:04:35;;;;;;;;;;;12.50;97.00;;;;;;5076031;28;20731;-49
2021/04/02 11:07:01;;;;;;;;;;;12.20;94.90;;;;;;5069441;28;20410;-48
2021/04/02 11:09:27;;;;;;;;;;;11.30;95.40;;;;;;5081352;28;25095;-48
2021/04/02 11:11:55;;;;;;;;;;;11.40;95.60;;;;;;5074808;28;20434;-48
2021/04/02 11:14:21;;;;;;;;;;;11.00;96.30;;;;;;5083633;28;25169;-48
2021/04/02 11:16:46;;;;;;;;;;;11.00;97.30;;;;;;5075104;28;20454;-48
2021/04/02 11:19:12;;;;;;;;;;;10.40;97.30;;;;;;5070054;28;25156;-51
2021/04/02 11:21:38;;;;;;;;;;;10.60;97.50;;;;;;5068703;28;25098;-48
2021/04/02 11:24:05;;;;;;;;;;;10.70;97.80;;;;;;5075225;28;25116;-48
2021/04/02 11:26:31;;;;;;;;;;;10.70;98.40;;;;;;5068766;28;20432;-49
2021/04/02 11:28:57;;;;;;;;;;;12.20;99.80;;;;;;5083763;28;20415;-51
2021/04/02 11:31:23;;;;;;;770.25;247.20;;;13.30;97.30;;;;;;5070843;28;20480;-47
2021/04/02 11:33:49;;;;;;;777.75;266.85;;;12.50;96.60;;;;;;5083425;28;20401;-48
2021/04/02 11:36:15;;;;;;;609.90;248.63;;;12.40;97.40;;;;;;5086577;28;20433;-51
2021/04/02 11:38:42;;;;;;;307.00;96.60;;;11.90;96.10;;;;;;5084541;28;20185;-50
2021/04/02 11:41:08;;;;;;;734.67;229.55;;;12.60;97.60;;;;;;5074975;28;20469;-49
2021/04/02 11:43:34;;;;;;;760.63;270.13;;;13.50;94.80;;;;;;5086596;28;20977;-53
2021/04/02 11:46:00;;;;;;;430.27;326.50;;;14.20;95.10;;;;;;5093217;28;20388;-49
2021/04/02 11:48:26;;;;;;;;;;;14.40;93.50;;;;;;5083492;28;20859;-51
2021/04/02 11:50:52;;;;;;;;;;;14.80;93.40;;;;;;5080732;28;20000;-51
2021/04/02 11:53:18;;;;;;;;;;;16.10;93.80;;;;;;5091626;28;20352;-53
2021/04/02 11:55:44;;;;;;;;;;;16.80;93.10;;;;;;5092412;28;20380;-53
2021/04/02 11:58:10;;;;;;;;;;;16.90;91.30;;;;;;5075054;28;20348;-50
2021/04/02 12:00:36;;;;;;;;;;;17.40;91.80;;;;;;5075088;28;19919;-50
2021/04/02 12:03:02;;;;;;;;;;;17.40;89.90;;;;;;5088545;28;19908;-50
2021/04/02 12:05:28;;;;;;;;;;;17.60;89.70;;;;;;5082656;28;19916;-52
2021/04/02 12:07:54;;;;;;;;;;;15.60;90.20;;;;;;5077611;28;19909;-49
2021/04/02 12:10:20;;;;;;;;;;;15.10;92.10;;;;;;5074882;28;19912;-53
2021/04/02 12:12:46;;;;;;;;;;;14.30;92.00;;;;;;5074848;28;19931;-49
2021/04/02 12:15:12;;;;;;;;;;;14.10;91.30;;;;;;5074279;28;19908;-52
2021/04/02 12:17:38;;;;;;;;;;;15.10;91.30;;;;;;5074127;28;25090;-52
2021/04/02 12:20:05;;;;;;;;;;;17.10;91.00;;;;;;5087620;28;19935;-54
2021/04/02 12:22:31;;;;;;;;;;;17.50;86.50;;;;;;5085076;28;19924;-49
2021/04/02 12:24:57;;;;;;;;;;;16.40;85.10;;;;;;5085865;28;25057;-50
2021/04/02 12:27:23;;;;;;;;;;;15.90;84.30;;;;;;5086340;28;25095;-48
2021/04/02 12:29:49;;;;;;;;;;;16.60;84.50;;;;;;5081135;28;24074;-52
2021/04/02 12:32:15;;;;;;;;;;;16.10;83.30;;;;;;5087624;28;25074;-49
2021/04/02 12:34:41;;;;;;;;;;;16.10;86.30;;;;;;5091919;28;25063;-52
2021/04/02 12:37:07;;;;;;;;;;;16.30;82.50;;;;;;5075107;28;25083;-51
2021/04/02 12:39:33;;;;;;;;;;;15.10;88.80;;;;;;5081910;28;25129;-51
2021/04/02 12:41:59;;;;;;;;;;;15.70;82.70;;;;;;5085769;28;25054;-48
2021/04/02 12:44:25;;;;;;;;;;;13.90;85.40;;;;;;5082817;28;25114;-51
2021/04/02 12:46:51;;;;;;;;;;;13.90;88.90;;;;;;5085411;27;25103;-49
2021/04/02 12:49:17;;;;;;;;;;;13.60;89.50;;;;;;5081390;28;25087;-51
2021/04/02 12:51:44;;;;;;;;;;;12.80;90.10;;;;;;5081413;28;25063;-49
2021/04/02 12:54:10;;;;;;;;;;;12.30;89.90;;;;;;5075097;28;25076;-50
2021/04/02 12:56:36;;;;;;;;;;;11.60;95.10;;;;;;5078840;28;25120;-49
2021/04/02 12:59:01;;;;;;;;;;;11.10;94.70;;;;;;5079279;28;25106;-49
2021/04/02 13:01:27;;;;;;;;;;;11.10;97.50;;;;;;5096827;28;25161;-52
2021/04/02 13:03:53;;;;;;;;;;;11.00;99.20;;;;;;5089466;28;25125;-52
2021/04/02 13:06:19;;;;;;;;;;;10.70;98.20;;;;;;5092154;28;25135;-50
2021/04/02 13:08:45;;;;;;;;;;;10.80;99.90;;;;;;5094113;28;25074;-50
2021/04/02 13:11:11;;;;;;;;;;;10.80;99.90;;;;;;5089959;28;25124;-48
2021/04/02 13:13:37;;;;;;;;;;;11.00;99.90;;;;;;5083599;28;25097;-50
2021/04/02 13:16:03;;;;;;;;;;;11.30;99.90;;;;;;5084688;28;25082;-50
2021/04/02 13:18:29;;;;;;;;;;;11.00;98.40;;;;;;5080827;28;25067;-48
2021/04/02 13:20:55;;;;;;;;;;;10.80;99.60;;;;;;5082798;28;25062;-48
2021/04/02 13:23:21;;;;;;;;;;;10.80;99.50;;;;;;5085357;28;20261;-48
2021/04/02 13:25:47;;;;;;;;;;;10.60;99.90;;;;;;5084785;28;25103;-47
2021/04/02 13:28:13;;;;;;;;;;;10.40;99.90;;;;;;5089388;28;19912;-48
2021/04/02 13:30:39;;;;;;;;;;;10.20;99.90;;;;;;5085360;28;25126;-47
2021/04/02 13:33:05;;;;;;;;;;;10.20;99.90;;;;;;5087808;28;25115;-47
2021/04/02 13:35:31;;;;;;;;;;;10.30;99.90;;;;;;5106400;28;25111;-50
2021/04/02 13:37:57;;;;;;;;;;;10.40;99.90;;;;;;5098445;28;25089;-50
2021/04/02 13:40:24;;;;;;;;;;;10.00;99.90;;;;;;5107049;28;20204;-51
2021/04/02 13:42:50;;;;;;;;;;;9.70;99.90;;;;;;5095736;28;25071;-47
2021/04/02 13:45:16;;;;;;;;;;;9.50;99.90;;;;;;5103760;28;25080;-47
2021/04/02 13:47:42;;;;;;;;;;;9.50;99.90;;;;;;5085211;28;25074;-47
2021/04/02 13:50:09;;;;;;;;;;;9.80;99.90;;;;;;5099580;28;25115;-50
2021/04/02 13:52:35;;;;;;;;;;;9.80;99.90;;;;;;5095316;28;25060;-46
2021/04/02 13:55:01;;;;;;;;;;;9.70;99.90;;;;;;5092812;28;25086;-50
2021/04/02 13:57:27;;;;;;;;;;;9.90;99.90;;;;;;5079337;28;25139;-47
2021/04/02 13:59:53;;;;;;;;;;;10.00;99.90;;;;;;5081520;28;25062;-47
2021/04/02 14:02:19;;;;;;;;;;;9.90;99.90;;;;;;5073986;28;25145;-47
2021/04/02 14:04:46;;;;;;;;;;;10.00;99.90;;;;;;5082532;28;25120;-51
2021/04/02 14:07:13;;;;;;;;;;;9.90;99.90;;;;;;5076187;28;25118;-47
2021/04/02 14:09:39;;;;;;;;;;;10.20;99.90;;;;;;5074157;28;25164;-48
2021/04/02 14:12:05;;;;;;;;;;;10.30;99.90;;;;;;5061209;28;25143;-47
2021/04/02 14:14:31;;;;;;;;;;;10.40;99.90;;;;;;5065250;28;25084;-50
2021/04/02 14:16:57;;;;;;;;;;;10.60;99.90;;;;;;5060947;28;20400;-47